Time;durP1;ratioP1;P1;durP2;ratioP2;P2;SDS_P1;SDS_P2;PMS_P1;PMS_P2;Temp;Humidity;BMP_temperature;BMP_pressure;BME280_temperature;BME280_humidity;BME280_pressure;Samples;Min_cycle;Max_cycle;Signal;HPM_P1;HPM_P2
2022/12/12 00:00:42;;;;;;;4.40;2.35;;;1.90;99.90;;;1.89;88.66;100094.56;4993398;28;20709;-64
2022/12/12 00:03:10;;;;;;;9.85;4.45;;;1.90;99.90;;;1.82;88.27;100094.88;4972339;28;20275;-64
2022/12/12 00:05:37;;;;;;;7.25;4.05;;;1.90;99.90;;;1.66;89.19;100092.19;4984983;28;20210;-64
2022/12/12 00:08:04;;;;;;;6.40;3.20;;;1.80;99.90;;;1.83;88.23;100091.44;4991802;28;20215;-63
2022/12/12 00:10:32;;;;;;;7.95;4.47;;;1.80;99.90;;;1.74;88.82;100102.13;4992834;28;20696;-64
2022/12/12 00:12:59;;;;;;;9.52;3.70;;;1.80;99.90;;;1.80;88.40;100094.13;4990931;28;20278;-64
2022/12/12 00:15:28;;;;;;;4.85;3.40;;;1.90;99.90;;;1.78;88.67;100077.94;4972395;28;20199;-64
2022/12/12 00:17:55;;;;;;;4.65;2.80;;;1.80;99.90;;;1.71;88.48;100084.25;4986271;28;20199;-64
2022/12/12 00:20:22;;;;;;;4.90;1.92;;;1.90;99.90;;;1.48;88.79;100087.84;4987417;28;20211;-64
2022/12/12 00:22:49;;;;;;;4.00;2.40;;;1.80;99.90;;;1.45;88.99;100077.66;4973050;28;20791;-64
2022/12/12 00:25:16;;;;;;;2.05;1.50;;;1.70;99.90;;;1.32;89.76;100086.84;4991093;28;20216;-64
2022/12/12 00:27:43;;;;;;;6.95;3.65;;;1.60;99.90;;;1.51;88.64;100087.72;4990354;28;20203;-64
2022/12/12 00:30:10;;;;;;;4.55;3.78;;;1.60;99.90;;;1.52;88.52;100081.66;4991938;28;20215;-64
2022/12/12 00:32:37;;;;;;;6.78;3.85;;;1.60;99.90;;;1.47;88.05;100084.41;4993365;28;20239;-64
2022/12/12 00:35:05;;;;;;;3.63;0.55;;;1.60;99.90;;;1.50;87.76;100080.88;4978887;28;20230;-64
2022/12/12 00:37:32;;;;;;;6.05;2.67;;;1.60;99.90;;;1.37;87.86;100080.59;4973846;28;20200;-64
2022/12/12 00:39:58;;;;;;;4.07;2.05;;;1.60;99.90;;;1.43;87.74;100084.63;4979443;28;20192;-64
2022/12/12 00:42:26;;;;;;;2.88;1.58;;;1.60;99.90;;;1.43;87.09;100087.19;4990209;28;20242;-64
2022/12/12 00:44:53;;;;;;;6.70;2.28;;;1.60;99.90;;;1.11;88.33;100080.03;4989150;28;20686;-64
2022/12/12 00:47:20;;;;;;;1.98;1.52;;;1.50;99.90;;;1.23;88.57;100079.50;4952021;28;20204;-64
2022/12/12 00:49:46;;;;;;;2.03;1.52;;;1.50;99.90;;;1.13;89.44;100080.81;4990778;28;20234;-63
2022/12/12 00:52:13;;;;;;;1.00;0.95;;;1.40;99.90;;;1.13;90.29;100076.47;4992211;28;20285;-64
2022/12/12 00:54:40;;;;;;;4.35;1.42;;;1.40;99.90;;;1.00;91.65;100075.31;4991874;28;20217;-63
2022/12/12 00:57:07;;;;;;;7.85;2.17;;;1.30;99.90;;;1.07;91.66;100076.75;4991432;28;20214;-64
2022/12/12 00:59:34;;;;;;;9.82;2.30;;;1.30;99.90;;;1.04;91.48;100082.03;4992184;28;20211;-63
2022/12/12 01:02:01;;;;;;;1.70;1.60;;;1.30;99.90;;;0.84;92.53;100089.72;4990308;28;20226;-64
2022/12/12 01:04:28;;;;;;;6.22;3.70;;;1.20;99.90;;;0.95;91.93;100077.25;4991436;28;20263;-64
2022/12/12 01:06:54;;;;;;;7.28;4.72;;;1.10;99.90;;;0.93;92.25;100083.34;4991669;28;20203;-64
2022/12/12 01:09:21;;;;;;;4.78;1.85;;;1.10;99.90;;;0.85;92.87;100090.53;4990387;28;20743;-64
2022/12/12 01:11:48;;;;;;;1.75;1.42;;;1.10;99.90;;;0.87;92.30;100083.63;4991663;28;20235;-64
2022/12/12 01:14:15;;;;;;;2.28;1.95;;;1.10;99.90;;;0.82;92.06;100088.09;4975290;28;20203;-64
2022/12/12 01:16:42;;;;;;;4.05;2.50;;;1.00;99.90;;;0.83;91.95;100090.63;4986830;28;20218;-64
2022/12/12 01:19:09;;;;;;;6.00;2.75;;;1.00;99.90;;;0.83;92.18;100092.34;4991017;28;20206;-64
2022/12/12 01:21:36;;;;;;;14.77;7.50;;;1.00;99.90;;;0.89;91.57;100092.94;4990730;28;20288;-64
2022/12/12 01:24:03;;;;;;;16.45;6.80;;;1.00;99.90;;;0.89;91.75;100090.38;4974245;28;20616;-64
2022/12/12 01:26:30;;;;;;;10.63;5.85;;;1.00;99.90;;;0.81;91.86;100102.66;4992044;28;20269;-64
2022/12/12 01:28:57;;;;;;;16.05;6.55;;;1.00;99.90;;;0.81;92.34;100104.41;4978645;28;20258;-64
2022/12/12 01:31:24;;;;;;;6.47;3.70;;;1.00;99.90;;;0.93;91.51;100101.34;4988482;28;20605;-63
2022/12/12 01:33:51;;;;;;;16.45;7.53;;;1.00;99.90;;;0.81;92.15;100100.09;4991423;28;20699;-64
2022/12/12 01:36:21;;;;;;;11.25;6.30;;;1.00;99.90;;;0.76;92.06;100104.59;4990325;28;20206;-64
2022/12/12 01:38:51;;;;;;;19.15;7.47;;;0.90;99.90;;;0.75;92.34;100105.47;4991965;28;20690;-64
2022/12/12 01:41:20;;;;;;;8.95;5.10;;;0.90;99.90;;;0.71;92.25;100102.22;4990281;28;20662;-64
2022/12/12 01:43:47;;;;;;;15.57;6.00;;;0.90;99.90;;;0.74;92.47;100103.81;4974898;28;20243;-64
2022/12/12 01:46:20;;;;;;;7.07;3.35;;;0.90;99.90;;;0.84;91.23;100104.28;4990340;28;20750;-64
2022/12/12 01:49:16;;;;;;;2.17;1.88;;;0.90;99.90;;;0.73;91.95;100102.97;4991470;28;20215;-64
2022/12/12 01:51:44;;;;;;;3.88;1.90;;;0.90;99.90;;;0.60;92.73;100116.34;4970217;28;20239;-64
2022/12/12 01:54:20;;;;;;;8.25;2.00;;;0.90;99.90;;;0.47;93.33;100113.44;4991153;28;20199;-64
2022/12/12 01:56:48;;;;;;;5.25;3.00;;;0.80;99.90;;;0.59;93.29;100119.84;4974983;28;20211;-64
2022/12/12 01:59:18;;;;;;;7.93;2.70;;;0.70;99.90;;;0.56;92.99;100112.25;4973595;28;20200;-63
2022/12/12 02:01:45;;;;;;;2.13;1.95;;;0.70;99.90;;;0.39;94.13;100118.03;4989855;28;20274;-63
2022/12/12 02:04:16;;;;;;;4.40;1.45;;;0.70;99.90;;;0.25;95.42;100111.75;4991522;28;20251;-64
2022/12/12 02:06:43;;;;;;;5.47;2.90;;;0.60;99.90;;;0.13;96.21;100109.69;4990303;28;20674;-64
2022/12/12 02:09:12;;;;;;;8.45;1.98;;;0.50;99.90;;;0.12;96.27;100113.97;4969265;28;20211;-64
2022/12/12 02:11:48;;;;;;;7.95;4.20;;;0.50;99.90;;;0.28;95.12;100114.22;4970700;28;20234;-64
2022/12/12 02:14:21;;;;;;;10.48;5.00;;;0.50;99.90;;;0.38;95.01;100105.28;4972312;28;20201;-64
2022/12/12 02:17:54;;;;;;;13.15;6.03;;;0.50;99.90;;;0.53;93.90;100110.63;4988500;28;20210;-64
2022/12/12 02:21:17;;;;;;;9.70;5.03;;;0.60;99.90;;;0.58;94.21;100110.44;4925485;29;20243;-64
2022/12/12 02:24:29;;;;;;;3.97;2.47;;;0.60;99.90;;;0.57;93.33;100116.50;4927280;29;20244;-62
2022/12/12 02:27:57;;;;;;;10.30;5.55;;;0.70;99.90;;;0.56;93.25;100109.66;4974987;28;20206;-63
2022/12/12 02:30:58;;;;;;;9.70;5.20;;;0.70;99.90;;;0.60;93.16;100112.06;4980783;28;20721;-64
2022/12/12 02:34:10;;;;;;;10.65;5.65;;;0.70;99.90;;;0.69;93.33;100110.88;4977355;28;20227;-64
2022/12/12 02:37:02;;;;;;;10.35;5.95;;;0.70;99.90;;;0.76;92.66;100118.28;4993711;28;20815;-64
2022/12/12 02:40:06;;;;;;;9.70;5.47;;;0.80;99.90;;;0.79;92.50;100114.72;4994522;28;20211;-64
2022/12/12 02:42:59;;;;;;;10.75;6.60;;;0.80;99.90;;;0.91;91.77;100111.69;4990991;28;20234;-63
2022/12/12 02:45:36;;;;;;;6.63;3.85;;;0.90;99.90;;;0.95;91.58;100120.09;4977243;28;20199;-63
2022/12/12 02:48:18;;;;;;;10.23;5.18;;;0.90;99.90;;;1.02;90.95;100129.22;4973289;28;20214;-63
2022/12/12 02:50:50;;;;;;;10.18;6.22;;;1.00;99.90;;;1.08;90.37;100131.53;4969162;28;20727;-64
2022/12/12 02:53:22;;;;;;;9.50;5.68;;;1.00;99.90;;;1.13;90.43;100133.00;4973290;28;20216;-63
2022/12/12 02:56:01;;;;;;;18.95;7.25;;;1.10;99.90;;;1.13;90.30;100138.16;4993019;28;20203;-63
2022/12/12 02:58:29;;;;;;;9.93;5.72;;;1.10;99.90;;;1.14;90.37;100144.13;4992667;28;20202;-63
2022/12/12 03:01:29;;;;;;;11.82;4.95;;;1.10;99.90;;;1.13;89.91;100145.03;4976332;28;20213;-64
2022/12/12 03:10:12;;;;;;;10.60;4.25;;;1.20;99.90;;;1.27;89.00;100140.16;4992901;28;20840;-63
2022/12/12 03:13:22;;;;;;;8.70;4.15;;;1.30;99.90;;;1.29;89.56;100144.34;4991450;28;20274;-63
2022/12/12 03:16:17;;;;;;;11.73;5.38;;;1.30;99.90;;;1.32;88.84;100149.34;4992725;28;20204;-62
2022/12/12 03:19:12;;;;;;;11.13;5.53;;;1.30;99.90;;;1.47;88.87;100146.13;4976182;28;20200;-64
2022/12/12 03:22:02;;;;;;;16.15;6.50;;;1.30;99.90;;;1.36;89.24;100143.16;4990888;28;20238;-64
2022/12/12 03:24:51;;;;;;;10.45;4.90;;;1.40;99.90;;;1.42;88.15;100145.50;4975947;28;20254;-64
2022/12/12 03:27:35;;;;;;;9.38;4.55;;;1.40;99.90;;;1.48;87.42;100147.81;4974374;28;20207;-63
2022/12/12 03:30:10;;;;;;;8.30;5.22;;;1.40;99.90;;;1.55;87.25;100146.63;4975124;28;20207;-63
2022/12/12 03:32:47;;;;;;;14.45;6.47;;;1.40;99.90;;;1.48;87.40;100144.38;4976421;28;20218;-63
2022/12/12 03:35:38;;;;;;;6.03;4.38;;;1.50;99.90;;;1.56;86.45;100142.31;4955909;28;20208;-64
2022/12/12 03:38:16;;;;;;;5.60;3.35;;;1.50;99.90;;;1.61;85.31;100139.56;4971238;28;20223;-63
2022/12/12 03:40:49;;;;;;;8.88;4.32;;;1.50;99.90;;;1.50;85.37;100143.44;4958581;28;20673;-63
2022/12/12 03:43:21;;;;;;;4.70;2.75;;;1.50;99.90;;;1.50;85.53;100143.44;4974836;28;20239;-64
2022/12/12 03:46:08;;;;;;;3.15;1.95;;;1.50;99.90;;;1.45;85.18;100145.34;4990629;28;20215;-63
2022/12/12 03:48:59;;;;;;;1.17;0.80;;;1.40;99.90;;;1.38;85.46;100143.97;4973467;28;20206;-63
2022/12/12 03:51:33;;;;;;;5.25;2.10;;;1.40;99.90;;;1.40;84.90;100144.72;4974891;28;20231;-63
2022/12/12 03:54:17;;;;;;;6.70;2.00;;;1.40;99.90;;;1.37;84.76;100138.84;4975923;28;20249;-63
2022/12/12 03:57:10;;;;;;;5.00;2.30;;;1.30;99.90;;;1.33;85.30;100152.75;4992821;28;20247;-63
2022/12/12 04:00:07;;;;;;;1.95;1.00;;;1.30;99.90;;;1.24;85.77;100150.53;4991260;28;20206;-64
2022/12/12 04:03:04;;;;;;;4.05;1.88;;;1.30;99.90;;;1.18;85.12;100143.94;4975408;28;20227;-64
2022/12/12 04:12:57;;;;;;;5.13;3.25;;;1.30;99.90;;;1.12;84.60;100141.63;4991154;28;20212;-64
2022/12/12 04:15:18;;;;;;;0.60;0.60;;;1.30;99.90;;;1.07;85.17;100138.41;4991813;28;20279;-63
2022/12/12 04:18:25;;;;;;;2.83;1.42;;;1.20;99.90;;;0.98;85.80;100138.78;4975112;28;20347;-64
2022/12/12 04:24:50;;;;;;;13.95;4.93;;;1.20;99.90;;;1.11;85.45;100141.69;4990892;28;20230;-64
2022/12/12 04:27:45;;;;;;;2.20;1.83;;;1.20;99.90;;;1.16;85.68;100139.75;4974492;28;20204;-64
2022/12/12 04:30:14;;;;;;;1.30;0.63;;;1.20;99.90;;;1.24;85.37;100143.69;4974245;28;20261;-64
2022/12/12 04:33:00;;;;;;;3.72;1.52;;;1.20;99.90;;;1.16;85.47;100142.31;4974870;28;20290;-64
2022/12/12 04:35:38;;;;;;;3.88;1.40;;;1.30;99.90;;;0.83;87.18;100144.56;4991938;28;20203;-64
2022/12/12 04:38:21;;;;;;;2.08;1.92;;;1.20;99.90;;;0.88;87.13;100149.47;4959348;28;20206;-64
2022/12/12 04:40:56;;;;;;;2.88;1.35;;;1.10;99.90;;;1.00;87.05;100139.53;4989490;28;20197;-63
2022/12/12 04:43:36;;;;;;;1.85;1.73;;;1.10;99.90;;;0.96;87.22;100147.47;4973305;28;20263;-64
2022/12/12 04:46:12;;;;;;;7.78;3.75;;;1.00;99.90;;;1.02;86.82;100155.75;4970361;28;20207;-64
2022/12/12 04:49:06;;;;;;;7.60;3.40;;;1.10;99.90;;;1.11;87.09;100149.41;4966169;28;20218;-64
2022/12/12 04:51:41;;;;;;;2.55;1.73;;;1.10;99.90;;;1.18;86.66;100151.66;4974735;28;20227;-64
2022/12/12 04:54:30;;;;;;;4.65;1.75;;;1.20;99.90;;;1.15;86.36;100149.19;4974469;28;20203;-64
2022/12/12 04:57:00;;;;;;;4.03;1.88;;;1.20;99.90;;;1.19;86.37;100158.44;4989938;28;20209;-63
2022/12/12 04:59:28;;;;;;;2.03;1.13;;;1.20;99.90;;;1.15;86.39;100156.09;4987104;28;20203;-63
2022/12/12 05:02:09;;;;;;;1.63;1.52;;;1.20;99.90;;;1.11;86.72;100149.41;4974718;28;20219;-63
2022/12/12 05:04:52;;;;;;;3.15;2.00;;;1.20;99.90;;;1.12;86.46;100161.34;4973830;28;20309;-63
2022/12/12 05:07:42;;;;;;;4.95;2.65;;;1.20;99.90;;;1.23;86.53;100165.16;4985123;28;20210;-63
2022/12/12 05:10:19;;;;;;;0.32;0.32;;;1.20;99.90;;;0.98;87.48;100154.19;4974054;28;20202;-63
2022/12/12 05:12:52;;;;;;;2.03;0.88;;;1.20;99.90;;;0.80;88.17;100152.38;4973309;28;20238;-63
2022/12/12 05:15:20;;;;;;;4.53;1.75;;;1.10;99.90;;;0.77;88.56;100157.59;4973827;28;20210;-63
2022/12/12 05:18:00;;;;;;;2.08;1.70;;;1.00;99.90;;;0.88;88.36;100168.28;4970349;28;20218;-63
2022/12/12 05:20:29;;;;;;;6.25;4.20;;;1.00;99.90;;;0.90;88.38;100168.22;4985023;28;20207;-63
2022/12/12 05:22:56;;;;;;;13.32;4.90;;;1.00;99.90;;;1.01;88.51;100168.63;4990200;28;20225;-63
2022/12/12 05:25:23;;;;;;;3.78;2.90;;;1.00;99.90;;;1.09;88.33;100167.44;4989729;28;20256;-63
2022/12/12 05:27:50;;;;;;;8.98;3.70;;;1.10;99.90;;;1.10;87.43;100166.56;4989596;28;20262;-63
2022/12/12 05:30:17;;;;;;;10.32;5.00;;;1.10;99.90;;;1.04;87.85;100164.22;4971064;28;20207;-63
2022/12/12 05:32:44;;;;;;;8.05;4.82;;;1.10;99.90;;;1.15;87.28;100169.75;4986862;28;20232;-63
2022/12/12 05:35:11;;;;;;;8.05;4.50;;;1.10;99.90;;;1.21;87.54;100176.38;4973819;28;20202;-63
2022/12/12 05:37:38;;;;;;;4.25;2.70;;;1.20;99.90;;;1.29;86.57;100182.88;4989956;28;20199;-64
2022/12/12 05:40:09;;;;;;;3.22;2.05;;;1.20;99.90;;;1.25;86.57;100185.63;4989483;28;20587;-63
2022/12/12 05:42:36;;;;;;;3.53;1.75;;;1.30;99.90;;;1.00;88.00;100188.34;4989969;28;20289;-64
2022/12/12 05:45:06;;;;;;;3.65;1.83;;;1.20;99.90;;;0.89;88.42;100185.38;4991378;28;20249;-63
2022/12/12 05:47:33;;;;;;;3.25;2.00;;;1.10;99.90;;;0.98;88.33;100182.44;4990450;28;20209;-63
2022/12/12 05:50:00;;;;;;;5.35;1.85;;;1.10;99.90;;;1.10;87.50;100178.56;4977582;28;20219;-64
2022/12/12 05:52:27;;;;;;;5.95;2.95;;;1.20;99.90;;;0.97;88.42;100179.94;4996161;28;20250;-63
2022/12/12 05:54:54;;;;;;;6.47;3.65;;;1.10;99.90;;;0.98;88.93;100185.00;4996970;28;20213;-63
2022/12/12 05:57:21;;;;;;;3.25;1.85;;;1.10;99.90;;;1.04;88.68;100184.78;4997380;28;20207;-63
2022/12/12 05:59:48;;;;;;;1.38;0.98;;;1.10;99.90;;;0.92;88.17;100187.81;4997914;28;20258;-64
2022/12/12 06:02:16;;;;;;;2.50;2.28;;;1.10;99.90;;;1.06;88.40;100192.41;4997023;28;20235;-63
2022/12/12 06:04:43;;;;;;;7.75;2.35;;;1.10;99.90;;;0.97;88.72;100183.34;4997178;28;20676;-64
2022/12/12 06:07:10;;;;;;;3.55;2.58;;;1.10;99.90;;;0.97;88.56;100183.34;4995873;28;20264;-64
2022/12/12 06:09:37;;;;;;;4.65;2.33;;;1.10;99.90;;;1.02;88.31;100184.00;4996843;28;20209;-63
2022/12/12 06:12:04;;;;;;;1.60;1.50;;;1.10;99.90;;;1.03;88.68;100190.81;4995575;28;20278;-64
2022/12/12 06:14:31;;;;;;;1.33;1.00;;;1.10;99.90;;;1.05;88.65;100196.72;4996506;28;20198;-64
2022/12/12 06:16:58;;;;;;;0.73;0.60;;;1.10;99.90;;;1.01;89.27;100196.91;4994372;28;20258;-64
2022/12/12 06:19:24;;;;;;;2.60;1.50;;;1.10;99.90;;;0.97;88.82;100197.91;4979513;28;20577;-64
2022/12/12 06:21:51;;;;;;;4.13;1.38;;;1.10;99.90;;;0.95;88.92;100202.28;4995658;28;20227;-64
2022/12/12 06:24:18;;;;;;;4.20;2.63;;;1.10;99.90;;;1.03;88.25;100208.78;4996469;28;20850;-64
2022/12/12 06:26:45;;;;;;;2.78;1.38;;;1.10;99.90;;;1.05;89.21;100201.00;4996510;28;20208;-64
2022/12/12 06:29:13;;;;;;;4.70;3.40;;;1.10;99.90;;;1.03;88.71;100201.09;4980804;28;20212;-64
2022/12/12 06:31:40;;;;;;;0.82;0.82;;;1.10;99.90;;;1.12;88.82;100202.44;4980161;28;20318;-63
2022/12/12 06:34:07;;;;;;;5.55;1.80;;;1.10;99.90;;;0.95;89.39;100203.13;4997217;28;20215;-64
2022/12/12 06:36:35;;;;;;;5.53;2.35;;;1.10;99.90;;;0.59;91.23;100207.13;4997484;28;20202;-63
2022/12/12 06:39:03;;;;;;;3.85;1.80;;;1.00;99.90;;;0.86;89.93;100215.47;4979852;28;20204;-64
2022/12/12 06:41:31;;;;;;;1.15;1.13;;;1.00;99.90;;;0.95;89.56;100212.56;4994434;28;20642;-64
2022/12/12 06:43:58;;;;;;;2.33;2.05;;;1.00;99.90;;;0.98;88.82;100213.25;4996432;28;20223;-64
2022/12/12 06:46:28;;;;;;;1.85;0.85;;;1.00;99.90;;;0.97;88.99;100221.03;4984970;28;20199;-64
2022/12/12 06:48:55;;;;;;;1.33;0.75;;;1.00;99.90;;;0.82;89.18;100219.06;4974789;28;20332;-62
2022/12/12 06:51:27;;;;;;;3.38;2.28;;;1.00;99.90;;;0.61;89.92;100223.28;4989526;28;20597;-63
2022/12/12 06:53:55;;;;;;;1.50;1.20;;;0.90;99.90;;;0.81;89.36;100218.22;4991273;28;20635;-64
2022/12/12 06:56:25;;;;;;;2.33;1.70;;;0.90;99.90;;;0.71;89.67;100216.91;4995432;28;20934;-63
2022/12/12 06:58:52;;;;;;;4.10;1.10;;;0.90;99.90;;;0.74;89.56;100227.91;4996436;28;20198;-63
2022/12/12 07:01:22;;;;;;;3.00;1.50;;;0.90;99.90;;;0.78;89.33;100226.91;4986297;28;20216;-63
2022/12/12 07:03:51;;;;;;;2.70;2.50;;;0.90;99.90;;;0.91;88.63;100232.41;4974596;28;20299;-64
2022/12/12 07:06:20;;;;;;;8.55;2.63;;;1.00;99.90;;;0.78;89.30;100236.34;4991727;28;20204;-63
2022/12/12 07:08:48;;;;;;;3.92;2.10;;;0.90;99.90;;;0.68;89.61;100232.44;4976426;28;20222;-63
2022/12/12 07:11:19;;;;;;;1.50;1.38;;;0.80;99.90;;;0.74;89.21;100233.06;4972093;28;20292;-63
2022/12/12 07:13:46;;;;;;;2.25;1.75;;;0.80;99.90;;;0.68;89.62;100242.72;4975244;28;20641;-63
2022/12/12 07:16:14;;;;;;;4.13;2.78;;;0.80;99.90;;;0.83;89.09;100233.59;4992008;28;20215;-65
2022/12/12 07:18:41;;;;;;;4.38;2.00;;;0.90;99.90;;;0.72;89.20;100239.94;4956053;28;20257;-63
2022/12/12 07:21:12;;;;;;;0.80;0.73;;;0.80;99.90;;;0.63;89.60;100240.31;4992178;28;20198;-63
2022/12/12 07:23:39;;;;;;;2.78;2.08;;;0.80;99.90;;;0.75;89.28;100250.13;4994747;28;20310;-64
2022/12/12 07:26:13;;;;;;;3.33;2.35;;;0.80;99.90;;;0.78;88.68;100252.59;4975633;28;20205;-63
2022/12/12 07:28:40;;;;;;;2.78;1.50;;;0.80;99.90;;;0.83;88.57;100254.97;4976100;28;20203;-63
2022/12/12 07:31:12;;;;;;;1.90;1.63;;;0.90;99.90;;;0.79;89.16;100255.97;4990032;28;20203;-63
2022/12/12 07:33:40;;;;;;;3.60;1.50;;;0.90;99.90;;;0.78;88.36;100265.44;4992396;28;20284;-63
2022/12/12 07:36:12;;;;;;;4.28;1.55;;;0.90;99.90;;;0.80;89.14;100273.06;4974265;28;20222;-63
2022/12/12 07:38:39;;;;;;;3.13;2.20;;;0.90;99.90;;;0.81;88.41;100264.44;4970856;28;20218;-61
2022/12/12 07:41:10;;;;;;;2.35;1.33;;;0.90;99.90;;;0.98;87.95;100266.41;4993483;28;20210;-63
2022/12/12 07:43:40;;;;;;;3.10;1.45;;;1.00;99.90;;;0.92;87.83;100271.75;4974632;28;20318;-64
2022/12/12 07:46:18;;;;;;;5.40;1.73;;;1.00;99.90;;;0.94;87.93;100275.13;4992906;28;20241;-63
2022/12/12 07:48:46;;;;;;;3.92;0.80;;;1.00;99.90;;;1.04;87.13;100272.13;4992060;28;20211;-63
2022/12/12 07:51:14;;;;;;;3.08;1.42;;;1.00;99.90;;;0.96;87.26;100263.84;4989189;28;20253;-63
2022/12/12 07:53:41;;;;;;;3.97;2.45;;;1.00;99.90;;;1.00;86.77;100265.41;4972732;28;20591;-63
2022/12/12 07:56:12;;;;;;;1.30;1.13;;;1.00;99.90;;;0.87;87.10;100273.66;4992707;28;20250;-63
2022/12/12 07:58:39;;;;;;;2.13;1.17;;;1.00;99.90;;;0.92;87.07;100276.88;4990951;28;20202;-63
2022/12/12 08:01:20;;;;;;;1.85;0.70;;;1.00;99.90;;;1.11;85.85;100278.69;4992279;28;20207;-63
2022/12/12 08:03:48;;;;;;;5.18;1.88;;;1.10;99.90;;;0.99;86.55;100273.19;4983389;28;20215;-64
2022/12/12 08:06:17;;;;;;;2.53;1.58;;;1.10;99.90;;;0.96;86.85;100281.84;4974545;28;20209;-64
2022/12/12 08:08:46;;;;;;;4.60;2.17;;;1.10;99.90;;;0.95;86.65;100285.31;4987884;28;20218;-63
2022/12/12 08:11:18;;;;;;;3.35;2.03;;;1.10;99.90;;;0.82;87.25;100286.69;4991014;28;20203;-64
2022/12/12 08:13:45;;;;;;;4.32;0.95;;;1.10;99.90;;;0.90;87.42;100288.94;4988687;28;20231;-64
2022/12/12 08:16:25;;;;;;;0.90;0.90;;;1.00;99.90;;;0.92;86.94;100285.44;4991990;28;20257;-64
2022/12/12 08:18:55;;;;;;;0.90;0.30;;;1.00;99.90;;;0.97;86.61;100291.25;4989873;28;20207;-64
2022/12/12 08:21:23;;;;;;;0.20;0.20;;;1.00;99.90;;;0.83;87.33;100288.38;4991261;28;20205;-64
2022/12/12 08:24:01;;;;;;;2.25;1.05;;;1.00;99.90;;;0.87;87.18;100284.78;4974521;28;20394;-64
2022/12/12 08:26:29;;;;;;;0.40;0.40;;;1.00;99.90;;;1.00;86.31;100280.81;4991206;28;20220;-64
2022/12/12 08:28:56;;;;;;;0.30;0.30;;;1.10;99.90;;;1.04;86.74;100282.41;4974079;28;20206;-64
2022/12/12 08:31:24;;;;;;;1.20;0.90;;;1.10;99.90;;;1.08;86.05;100289.09;4969529;28;20747;-64
2022/12/12 08:33:52;;;;;;;1.73;1.40;;;1.10;99.90;;;1.16;85.55;100286.22;4990474;28;20648;-64
2022/12/12 08:36:25;;;;;;;1.10;0.85;;;1.20;99.90;;;1.33;84.36;100292.38;4990120;28;20221;-64
2022/12/12 08:38:52;;;;;;;1.35;1.17;;;1.20;99.90;;;1.26;84.36;100298.66;4971777;28;20204;-64
2022/12/12 08:43:54;;;;;;;1.42;0.57;;;1.30;99.90;;;1.17;85.02;100295.63;4970434;28;20228;-67
2022/12/12 08:46:22;;;;;;;1.38;0.82;;;1.30;99.90;;;1.39;84.50;100304.97;4971033;28;20214;-65
2022/12/12 08:48:49;;;;;;;3.88;1.85;;;1.30;99.90;;;1.42;84.58;100310.00;4973039;28;20659;-66
2022/12/12 08:51:17;;;;;;;2.47;2.28;;;1.40;99.90;;;1.18;85.06;100304.97;4973162;28;20573;-64
2022/12/12 08:53:45;;;;;;;6.45;2.70;;;1.30;99.90;;;1.37;84.62;100311.91;4966387;28;20234;-65
2022/12/12 08:56:14;;;;;;;0.35;0.35;;;1.30;99.90;;;1.46;83.73;100314.13;4972289;28;20661;-66
2022/12/12 08:58:42;;;;;;;0.50;0.50;;;1.40;99.90;;;1.33;83.18;100312.94;4971402;28;20563;-66
2022/12/12 09:01:15;;;;;;;0.40;0.40;;;1.40;99.90;;;1.23;84.58;100306.50;4972096;28;20246;-65
2022/12/12 09:03:42;;;;;;;1.73;0.95;;;1.30;99.90;;;1.39;83.68;100320.41;4972668;28;20226;-65
2022/12/12 09:06:09;;;;;;;4.80;1.35;;;1.40;99.90;;;1.46;83.61;100321.00;4972298;28;20211;-66
2022/12/12 09:08:37;;;;;;;0.63;0.63;;;1.40;99.90;;;1.24;83.93;100318.44;4971615;28;20214;-66
2022/12/12 09:11:05;;;;;;;1.23;1.13;;;1.40;99.90;;;1.40;82.84;100316.13;4952999;28;20258;-66
2022/12/12 09:13:32;;;;;;;5.20;2.25;;;1.40;99.90;;;1.11;83.31;100327.50;4971453;28;20237;-66
2022/12/12 09:15:59;;;;;;;1.48;1.40;;;1.40;99.90;;;0.92;84.03;100325.69;4971721;28;20206;-67
2022/12/12 09:18:27;;;;;;;0.77;0.77;;;1.20;99.90;;;0.96;84.59;100320.38;4970319;28;20625;-66
2022/12/12 09:20:56;;;;;;;0.90;0.80;;;1.20;99.90;;;1.10;84.16;100320.72;4972349;28;20667;-66
2022/12/12 09:23:27;;;;;;;4.72;2.90;;;1.20;99.90;;;1.24;83.49;100327.88;4967075;28;20262;-65
2022/12/12 09:25:54;;;;;;;0.65;0.65;;;1.30;99.90;;;1.23;83.95;100324.47;4971280;28;20200;-65
2022/12/12 09:28:24;;;;;;;0.50;0.50;;;1.30;99.90;;;1.19;83.58;100333.19;4971360;28;20210;-64
2022/12/12 09:30:51;;;;;;;2.33;2.25;;;1.30;99.90;;;1.37;82.62;100332.47;4970896;28;20217;-64
2022/12/12 09:33:18;;;;;;;2.22;1.17;;;1.40;99.90;;;1.31;83.15;100340.44;4970512;28;20634;-65
2022/12/12 09:35:45;;;;;;;1.58;0.80;;;1.40;99.90;;;1.44;82.27;100338.22;4970803;28;20210;-64
2022/12/12 09:38:12;;;;;;;1.55;1.45;;;1.40;99.90;;;1.74;80.15;100331.03;4970963;28;20203;-64
2022/12/12 09:41:09;;;;;;;1.08;0.88;;;1.60;99.90;;;2.11;78.38;100334.56;4970533;28;20208;-65
2022/12/12 09:43:38;;;;;;;0.60;0.60;;;1.80;99.90;;;2.30;77.40;100337.19;4954093;28;20290;-65
2022/12/12 09:46:24;;;;;;;0.60;0.60;;;2.00;99.90;;;2.26;77.10;100339.06;4970726;28;20208;-65
2022/12/12 09:48:52;;;;;;;0.40;0.40;;;2.10;99.90;;;2.49;77.86;100332.13;4969825;28;20203;-64
2022/12/12 09:51:19;;;;;;;1.38;1.27;;;2.30;99.90;;;2.85;74.63;100327.91;4941107;28;20209;-64
2022/12/12 09:53:46;;;;;;;4.45;2.75;;;2.50;99.90;;;2.54;75.62;100327.59;4968693;28;20291;-64
2022/12/12 09:56:43;;;;;;;12.95;4.47;;;2.50;99.90;;;2.67;75.39;100321.84;4968760;28;20674;-65
2022/12/12 09:59:29;;;;;;;4.30;1.50;;;2.50;99.90;;;2.81;74.53;100324.63;4929457;28;20201;-65
2022/12/12 10:02:20;;;;;;;3.70;1.98;;;2.60;99.90;;;3.09;73.61;100330.19;4953350;28;20262;-66
2022/12/12 10:05:27;;;;;;;1.85;1.20;;;2.70;99.90;;;3.41;71.72;100322.72;4943880;28;20296;-65
2022/12/12 10:08:20;;;;;;;1.55;1.13;;;2.90;99.90;;;3.48;71.71;100324.06;4969993;28;20215;-65
2022/12/12 10:10:53;;;;;;;6.75;2.08;;;3.10;99.90;;;3.48;nan;100318.91;4946183;28;20215;-65
2022/12/12 10:13:30;;;;;;;0.30;0.30;;;3.10;99.90;;;3.43;72.07;100320.91;4953966;28;20236;-68
2022/12/12 10:16:11;;;;;;;3.45;2.15;;;3.10;99.90;;;3.37;72.11;100322.00;4949666;28;20212;-65
2022/12/12 10:18:47;;;;;;;3.10;1.38;;;3.10;99.90;;;3.06;72.49;100317.47;4946969;28;20252;-67
2022/12/12 10:21:22;;;;;;;2.17;0.95;;;3.00;99.90;;;3.11;73.32;100325.81;4941837;29;20207;-66
2022/12/12 10:24:01;;;;;;;2.20;2.00;;;2.90;99.90;;;3.38;71.59;100320.28;4947145;28;20271;-65
2022/12/12 10:26:29;;;;;;;0.43;0.43;;;3.00;99.90;;;3.58;70.27;100322.72;4967970;28;20591;-67
2022/12/12 10:29:21;;;;;;;1.10;1.10;;;3.20;99.90;;;3.60;71.41;100318.34;4970969;28;20216;-65
2022/12/12 10:32:40;;;;;;;1.05;0.80;;;3.20;99.90;;;3.11;71.72;100319.81;4968417;28;20611;-65
2022/12/12 10:35:27;;;;;;;2.92;2.30;;;3.20;99.90;;;3.30;71.24;100312.06;4959216;28;20328;-65
2022/12/12 10:38:40;;;;;;;1.45;1.35;;;3.20;99.90;;;3.00;72.69;100314.34;4954548;29;20501;-65
2022/12/12 10:41:35;;;;;;;5.15;2.70;;;3.10;99.90;;;2.85;73.60;100320.19;4939045;29;20264;-66
2022/12/12 10:44:51;;;;;;;0.50;0.50;;;3.00;99.90;;;2.54;75.48;100310.41;4953182;28;20255;-64
2022/12/12 10:47:18;;;;;;;4.20;2.33;;;2.70;99.90;;;2.49;74.99;100311.50;4947038;28;20669;-65
2022/12/12 10:49:45;;;;;;;1.85;1.05;;;2.70;99.90;;;2.76;74.72;100315.44;4972491;28;20205;-66
2022/12/12 10:52:21;;;;;;;0.47;0.47;;;2.70;99.90;;;2.89;73.41;100322.56;4968416;28;20224;-65
2022/12/12 10:54:58;;;;;;;0.30;0.30;;;2.70;99.90;;;2.75;74.00;100321.47;4972352;28;20234;-67
2022/12/12 10:57:28;;;;;;;2.60;1.42;;;2.70;99.90;;;2.78;74.03;100324.78;4961039;28;20196;-67
2022/12/12 10:59:57;;;;;;;2.92;1.60;;;2.70;99.90;;;2.71;73.92;100322.53;4954634;28;20196;-64
2022/12/12 11:02:38;;;;;;;0.88;0.88;;;2.80;99.90;;;2.91;73.03;100320.75;4971784;28;20220;-64
2022/12/12 11:05:16;;;;;;;2.53;0.93;;;2.80;99.90;;;3.00;72.70;100317.72;4964399;28;20200;-63
2022/12/12 11:08:06;;;;;;;2.30;1.60;;;2.80;99.90;;;3.27;71.66;100317.34;4951367;28;20215;-65
2022/12/12 11:10:37;;;;;;;1.35;0.93;;;3.00;99.90;;;3.36;71.67;100319.50;4973831;28;20209;-65
2022/12/12 11:13:10;;;;;;;1.95;1.20;;;3.10;99.90;;;3.47;70.28;100317.25;4970587;28;20339;-66
2022/12/12 11:16:12;;;;;;;1.50;1.10;;;3.20;99.90;;;3.55;69.29;100322.88;4973540;28;20211;-65